Time;durP1;ratioP1;P1;durP2;ratioP2;P2;SDS_P1;SDS_P2;PMS_P1;PMS_P2;Temp;Humidity;BMP_temperature;BMP_pressure;BME280_temperature;BME280_humidity;BME280_pressure;Samples;Min_cycle;Max_cycle;Signal;HPM_P1;HPM_P2
2023/05/19 00:01:06;;;;;;;4.55;2.15;;;15.40;72.20;;;;;;4938645;29;20020;-84
2023/05/19 00:03:39;;;;;;;5.00;2.55;;;15.40;72.20;;;;;;4938736;29;20396;-84
2023/05/19 00:06:09;;;;;;;3.63;2.28;;;15.40;72.20;;;;;;4938469;29;20042;-84
2023/05/19 00:08:37;;;;;;;5.15;2.38;;;15.40;72.30;;;;;;4938825;29;20099;-84
2023/05/19 00:11:03;;;;;;;5.78;2.47;;;15.40;72.20;;;;;;4939889;29;20122;-84
2023/05/19 00:13:29;;;;;;;4.85;2.35;;;15.40;72.30;;;;;;4938546;29;20115;-85
2023/05/19 00:15:55;;;;;;;5.78;2.80;;;15.40;72.20;;;;;;4922228;29;20087;-84
2023/05/19 00:18:21;;;;;;;4.22;2.35;;;15.40;72.20;;;;;;4938640;29;20560;-85
2023/05/19 00:20:47;;;;;;;4.53;2.05;;;15.40;72.20;;;;;;4938443;29;20030;-83
2023/05/19 00:23:13;;;;;;;4.05;2.10;;;15.40;72.10;;;;;;4939705;29;20399;-84
2023/05/19 00:25:38;;;;;;;4.20;2.25;;;15.40;72.00;;;;;;4938073;29;20098;-83
2023/05/19 00:28:04;;;;;;;4.15;2.10;;;15.40;72.10;;;;;;4938224;29;20032;-84
2023/05/19 00:30:29;;;;;;;4.70;2.50;;;15.30;72.10;;;;;;4938404;29;20111;-83
2023/05/19 00:32:55;;;;;;;4.70;2.38;;;15.30;72.20;;;;;;4939490;29;20480;-84
2023/05/19 00:35:24;;;;;;;5.10;2.50;;;15.30;72.30;;;;;;4938239;29;20488;-84
2023/05/19 00:37:49;;;;;;;5.07;2.22;;;15.30;72.30;;;;;;4938106;29;20019;-84
2023/05/19 00:40:15;;;;;;;4.63;2.53;;;15.30;72.40;;;;;;4938092;29;20075;-84
2023/05/19 00:42:41;;;;;;;5.60;2.25;;;15.30;72.40;;;;;;4937939;29;20115;-85
2023/05/19 00:45:07;;;;;;;5.88;2.42;;;15.30;72.40;;;;;;4937953;29;20027;-84
2023/05/19 00:47:33;;;;;;;4.82;2.30;;;15.30;72.40;;;;;;4937798;29;20500;-84
2023/05/19 00:49:58;;;;;;;5.35;2.30;;;15.30;72.40;;;;;;4937939;29;20038;-84
2023/05/19 00:52:25;;;;;;;4.05;2.13;;;15.30;72.30;;;;;;4939181;29;20067;-84
2023/05/19 00:54:51;;;;;;;4.32;2.28;;;15.30;72.40;;;;;;4939295;29;20028;-85
2023/05/19 00:57:17;;;;;;;5.82;2.40;;;15.30;72.40;;;;;;4937983;29;20038;-84
2023/05/19 00:59:42;;;;;;;3.55;2.10;;;15.30;72.30;;;;;;4937883;29;20020;-84
2023/05/19 01:02:08;;;;;;;4.95;2.42;;;15.20;72.30;;;;;;4937736;29;20059;-85
2023/05/19 01:04:36;;;;;;;3.95;2.20;;;15.20;72.30;;;;;;4937819;29;20028;-84
2023/05/19 01:07:02;;;;;;;4.07;2.22;;;15.20;72.30;;;;;;4937368;29;20032;-84
2023/05/19 01:09:29;;;;;;;5.63;2.35;;;15.20;72.30;;;;;;4937795;29;20503;-84
2023/05/19 01:11:54;;;;;;;5.03;2.30;;;15.20;72.30;;;;;;4936943;29;20092;-86
2023/05/19 01:14:20;;;;;;;2.88;1.95;;;15.20;72.30;;;;;;4937479;29;20028;-84
2023/05/19 01:16:50;;;;;;;4.05;2.10;;;15.20;72.30;;;;;;4937368;29;20024;-83
2023/05/19 01:19:37;;;;;;;4.13;2.40;;;15.20;72.30;;;;;;4937354;29;20083;-84
2023/05/19 01:22:21;;;;;;;3.70;2.20;;;15.20;72.30;;;;;;4937297;29;20054;-85
2023/05/19 01:25:26;;;;;;;5.43;2.30;;;15.20;72.30;;;;;;4938801;29;20439;-85
2023/05/19 01:28:23;;;;;;;4.18;2.30;;;15.20;72.40;;;;;;4937099;29;20028;-84
2023/05/19 01:30:54;;;;;;;4.00;2.20;;;15.20;72.40;;;;;;4932536;29;20035;-84
2023/05/19 01:33:22;;;;;;;3.58;2.08;;;15.20;72.40;;;;;;4937248;29;20091;-84
2023/05/19 01:35:49;;;;;;;4.28;2.28;;;15.10;72.30;;;;;;4936989;29;20028;-84
2023/05/19 01:38:17;;;;;;;4.57;2.22;;;15.20;72.40;;;;;;4937102;29;20557;-84
2023/05/19 01:40:44;;;;;;;4.65;2.17;;;15.20;72.40;;;;;;4937172;29;20028;-84
2023/05/19 01:43:14;;;;;;;3.05;2.05;;;15.20;72.50;;;;;;4937150;29;20066;-84
2023/05/19 01:45:40;;;;;;;5.57;2.50;;;15.20;72.50;;;;;;4936887;29;20484;-84
2023/05/19 01:48:06;;;;;;;5.68;2.63;;;15.20;72.60;;;;;;4936796;29;20031;-82
2023/05/19 01:50:33;;;;;;;3.47;2.22;;;15.30;72.80;;;;;;4936962;29;20448;-84
2023/05/19 01:52:59;;;;;;;5.55;2.50;;;15.30;72.80;;;;;;4937082;29;20032;-84
2023/05/19 01:55:25;;;;;;;3.75;2.38;;;15.30;72.80;;;;;;4936636;29;20035;-84
2023/05/19 01:58:22;;;;;;;3.60;2.20;;;15.30;72.90;;;;;;4936583;29;20026;-84
2023/05/19 02:00:52;;;;;;;4.35;2.40;;;15.30;72.90;;;;;;4936580;29;20056;-84
2023/05/19 02:03:37;;;;;;;4.55;2.13;;;15.30;72.80;;;;;;4936589;29;20034;-84
2023/05/19 02:06:02;;;;;;;5.72;2.55;;;15.40;72.90;;;;;;4936395;29;20032;-84
2023/05/19 02:08:49;;;;;;;3.75;2.40;;;15.40;72.90;;;;;;4936461;29;20035;-85
2023/05/19 02:11:30;;;;;;;5.05;2.83;;;15.40;73.00;;;;;;4936482;29;20520;-84
2023/05/19 02:13:59;;;;;;;4.43;2.50;;;15.40;73.00;;;;;;4936510;29;20039;-84
2023/05/19 02:16:27;;;;;;;4.90;2.40;;;15.30;72.80;;;;;;4937471;29;20046;-83
2023/05/19 02:18:54;;;;;;;5.03;2.50;;;15.30;72.60;;;;;;4936501;29;20381;-84
2023/05/19 02:21:19;;;;;;;4.15;2.38;;;15.30;72.60;;;;;;4936152;29;20449;-84
2023/05/19 02:23:46;;;;;;;3.85;2.38;;;15.20;72.60;;;;;;4935434;29;20024;-83
2023/05/19 02:26:11;;;;;;;4.05;2.33;;;15.30;72.70;;;;;;4936175;29;20035;-84
2023/05/19 02:28:37;;;;;;;3.83;2.38;;;15.20;72.70;;;;;;4937550;29;20075;-85
2023/05/19 02:31:05;;;;;;;5.57;2.42;;;15.20;72.80;;;;;;4936208;29;20024;-84
2023/05/19 02:33:30;;;;;;;4.35;2.58;;;15.20;72.80;;;;;;4936240;29;20480;-85
2023/05/19 02:35:56;;;;;;;3.97;2.40;;;15.20;72.80;;;;;;4935840;29;20028;-84
2023/05/19 02:38:22;;;;;;;4.28;2.25;;;15.20;72.90;;;;;;4935932;29;20484;-84
2023/05/19 02:40:47;;;;;;;5.25;2.60;;;15.20;72.80;;;;;;4935958;29;20030;-84
2023/05/19 02:43:13;;;;;;;3.92;2.22;;;15.20;72.90;;;;;;4935906;29;20059;-83
2023/05/19 02:45:38;;;;;;;4.30;2.25;;;15.10;72.80;;;;;;4935833;29;20032;-85
2023/05/19 02:48:04;;;;;;;4.63;2.60;;;15.20;72.80;;;;;;4935858;29;20020;-84
2023/05/19 02:50:29;;;;;;;4.13;2.40;;;15.20;72.80;;;;;;4937272;29;20023;-84
2023/05/19 02:52:55;;;;;;;4.88;2.38;;;15.20;72.80;;;;;;4916558;29;20024;-84
2023/05/19 02:55:20;;;;;;;4.03;2.33;;;15.20;73.00;;;;;;4934352;29;20035;-84
2023/05/19 02:57:46;;;;;;;4.65;2.53;;;15.20;72.80;;;;;;4919756;29;20441;-84
2023/05/19 03:00:12;;;;;;;4.18;2.30;;;15.20;72.80;;;;;;4936733;29;20111;-84
2023/05/19 03:02:38;;;;;;;3.70;2.20;;;15.10;72.80;;;;;;4919949;29;20039;-85
2023/05/19 03:05:04;;;;;;;4.90;2.42;;;15.20;72.80;;;;;;4919760;29;20055;-84
2023/05/19 03:07:29;;;;;;;3.65;2.17;;;15.20;72.80;;;;;;4936505;29;20031;-85
2023/05/19 03:09:55;;;;;;;4.57;2.40;;;15.10;72.70;;;;;;4936756;29;20032;-85
2023/05/19 03:12:20;;;;;;;4.57;2.28;;;15.10;72.80;;;;;;4936887;29;20443;-84
2023/05/19 03:14:46;;;;;;;4.18;2.40;;;15.10;72.70;;;;;;4919353;29;20040;-85
2023/05/19 03:17:12;;;;;;;4.80;2.47;;;15.20;72.80;;;;;;4936284;29;20035;-83
2023/05/19 03:22:06;;;;;;;3.95;2.40;;;15.20;72.80;;;;;;4934107;29;20488;-83
2023/05/19 03:24:32;;;;;;;4.10;2.42;;;15.50;73.00;;;;;;4919009;29;20060;-83
2023/05/19 03:26:57;;;;;;;4.03;2.30;;;15.20;72.80;;;;;;4918850;29;20043;-85
2023/05/19 03:29:23;;;;;;;3.97;2.38;;;15.20;72.80;;;;;;4918898;29;20027;-83
2023/05/19 03:31:48;;;;;;;4.32;2.50;;;15.10;72.80;;;;;;4918763;29;20049;-83
2023/05/19 03:34:14;;;;;;;4.68;2.60;;;15.10;72.80;;;;;;4918692;29;20019;-84
2023/05/19 03:36:39;;;;;;;4.25;2.45;;;15.10;72.70;;;;;;4918834;29;20043;-84
2023/05/19 03:39:05;;;;;;;4.32;2.67;;;15.20;72.80;;;;;;4919017;29;20028;-84
2023/05/19 03:41:31;;;;;;;4.97;2.67;;;15.10;72.80;;;;;;4918780;29;20030;-84
2023/05/19 03:43:56;;;;;;;3.65;2.20;;;15.20;72.90;;;;;;4935750;29;20027;-84
2023/05/19 03:46:22;;;;;;;3.67;2.33;;;15.20;73.00;;;;;;4935645;29;20028;-84
2023/05/19 03:48:48;;;;;;;5.30;2.80;;;15.20;72.90;;;;;;4918973;29;20028;-83
2023/05/19 03:51:13;;;;;;;4.63;2.60;;;15.20;73.00;;;;;;4918917;29;20036;-83
2023/05/19 03:53:40;;;;;;;5.65;2.50;;;15.20;73.00;;;;;;4918611;29;20039;-83
2023/05/19 03:56:06;;;;;;;4.78;2.50;;;15.30;73.00;;;;;;4918545;29;20027;-84
2023/05/19 03:58:32;;;;;;;5.28;2.72;;;15.30;73.00;;;;;;4935583;29;20051;-83
2023/05/19 04:00:57;;;;;;;4.78;2.80;;;15.30;73.00;;;;;;4918729;29;20024;-84
2023/05/19 04:03:24;;;;;;;4.65;2.60;;;15.30;73.00;;;;;;4918525;29;20027;-84
2023/05/19 04:05:50;;;;;;;4.03;2.53;;;15.30;73.00;;;;;;4918421;29;20115;-84
2023/05/19 04:08:16;;;;;;;5.32;2.78;;;15.30;72.90;;;;;;4918400;29;20059;-84
2023/05/19 04:10:41;;;;;;;4.13;2.60;;;15.20;72.70;;;;;;4918461;29;20114;-83
2023/05/19 04:13:07;;;;;;;4.25;2.50;;;15.20;72.70;;;;;;4918588;29;20031;-83
2023/05/19 04:15:32;;;;;;;5.10;2.90;;;15.30;72.80;;;;;;4918361;29;20043;-83
2023/05/19 04:17:58;;;;;;;4.45;2.58;;;15.20;72.80;;;;;;4918263;29;20369;-84
2023/05/19 04:20:23;;;;;;;4.93;2.63;;;15.10;72.80;;;;;;4918034;29;20039;-83
2023/05/19 04:22:49;;;;;;;3.30;2.20;;;15.10;72.90;;;;;;4918649;29;20043;-83
2023/05/19 04:25:14;;;;;;;3.67;2.30;;;15.20;73.00;;;;;;4918189;29;20175;-83
2023/05/19 04:27:40;;;;;;;3.65;2.35;;;15.10;73.00;;;;;;4917950;29;20404;-83
2023/05/19 04:30:06;;;;;;;4.22;2.45;;;15.10;73.00;;;;;;4918331;29;20111;-84
2023/05/19 04:32:32;;;;;;;4.63;2.83;;;15.10;73.00;;;;;;4918319;29;20035;-83
2023/05/19 04:34:57;;;;;;;5.35;2.60;;;15.10;73.00;;;;;;4918138;29;20032;-84
2023/05/19 04:37:24;;;;;;;3.78;2.33;;;15.10;73.00;;;;;;4918267;29;20023;-84
2023/05/19 04:39:51;;;;;;;5.38;2.45;;;15.10;73.00;;;;;;4918438;29;20087;-84
2023/05/19 04:42:18;;;;;;;4.55;2.50;;;15.10;73.00;;;;;;4933676;29;20020;-84
2023/05/19 04:44:48;;;;;;;4.45;2.50;;;15.20;73.00;;;;;;4910126;29;20028;-83
2023/05/19 04:47:14;;;;;;;3.80;2.50;;;15.10;73.00;;;;;;4913928;29;20035;-84
2023/05/19 04:50:06;;;;;;;4.72;2.75;;;15.20;73.10;;;;;;4917281;29;20032;-83
2023/05/19 04:56:00;;;;;;;4.30;2.47;;;15.10;72.90;;;;;;4923891;29;20684;-84
2023/05/19 04:58:26;;;;;;;;;;;15.10;72.90;;;;;;4916389;29;20031;-83
2023/05/19 05:01:12;;;;;;;3.70;2.50;;;15.10;72.90;;;;;;4916599;29;20100;-83
2023/05/19 05:03:38;;;;;;;3.78;2.28;;;15.40;73.00;;;;;;4926828;29;20051;-83
2023/05/19 05:06:21;;;;;;;4.47;2.53;;;15.20;72.80;;;;;;4927292;29;20028;-83
2023/05/19 05:08:47;;;;;;;4.75;2.60;;;15.20;72.90;;;;;;4916312;29;20500;-87
2023/05/19 05:11:13;;;;;;;3.75;2.40;;;15.10;72.90;;;;;;4915946;29;20035;-82
2023/05/19 05:13:42;;;;;;;4.47;2.63;;;15.20;72.90;;;;;;4916281;29;20055;-83
2023/05/19 05:16:08;;;;;;;4.13;2.58;;;15.10;72.80;;;;;;4916198;29;20727;-83
2023/05/19 05:18:37;;;;;;;3.95;2.50;;;15.10;72.80;;;;;;4915648;29;20306;-83
2023/05/19 05:21:06;;;;;;;4.97;2.63;;;15.20;72.90;;;;;;4917524;29;20509;-82
2023/05/19 05:23:32;;;;;;;4.40;2.40;;;15.20;72.80;;;;;;4917306;29;20101;-83
2023/05/19 05:26:14;;;;;;;3.55;2.42;;;15.20;72.80;;;;;;4916453;29;20765;-83
2023/05/19 05:28:52;;;;;;;4.38;2.50;;;15.20;72.80;;;;;;4912204;29;20035;-84
2023/05/19 05:31:53;;;;;;;4.38;2.60;;;15.20;72.70;;;;;;4915776;29;20046;-85
2023/05/19 05:35:05;;;;;;;4.28;2.70;;;15.30;72.90;;;;;;4906129;29;20032;-84
2023/05/19 05:38:19;;;;;;;3.72;2.45;;;15.20;72.70;;;;;;4915770;29;20818;-84
2023/05/19 05:47:53;;;;;;;4.40;2.70;;;15.20;72.60;;;;;;4931439;29;20288;-84
2023/05/19 05:50:28;;;;;;;5.10;2.70;;;15.30;72.50;;;;;;4915379;29;20031;-86
2023/05/19 05:53:26;;;;;;;4.63;2.63;;;15.40;72.50;;;;;;4913548;29;20039;-83
2023/05/19 05:56:09;;;;;;;4.45;2.53;;;15.40;72.50;;;;;;4854807;29;20113;-83
2023/05/19 05:58:46;;;;;;;4.53;2.58;;;15.30;72.40;;;;;;4865013;29;20408;-83
2023/05/19 06:14:36;;;;;;;4.00;2.40;;;15.30;72.60;;;;;;5095237;23;20055;-84
2023/05/19 06:51:01;;;;;;;5.47;2.90;;;15.40;72.40;;;;;;4942604;28;20106;-86
2023/05/19 06:54:00;;;;;;;4.45;2.72;;;16.90;73.10;;;;;;4931505;29;20191;-87
2023/05/19 06:56:26;;;;;;;4.88;2.60;;;15.50;72.30;;;;;;4948576;29;20066;-87
2023/05/19 06:59:03;;;;;;;3.92;2.47;;;15.40;72.20;;;;;;4933876;29;20069;-87
2023/05/19 07:01:37;;;;;;;5.38;2.78;;;15.40;72.20;;;;;;4949267;28;20050;-88
2023/05/19 07:04:06;;;;;;;4.32;2.47;;;15.30;72.20;;;;;;4951031;29;20055;-86
2023/05/19 07:06:55;;;;;;;;;;;;;;;;;;;;;
2023/05/19 07:09:24;;;;;;;4.38;2.72;;;15.50;72.20;;;;;;4951370;28;20034;-86
2023/05/19 07:11:58;;;;;;;4.30;2.60;;;15.50;72.10;;;;;;4934159;29;20130;-88
2023/05/19 07:14:35;;;;;;;4.60;2.80;;;15.50;72.10;;;;;;4935097;29;20491;-88
2023/05/19 07:17:15;;;;;;;4.63;2.70;;;15.70;72.10;;;;;;4934650;29;20031;-87
2023/05/19 07:19:57;;;;;;;4.70;2.65;;;15.60;72.00;;;;;;4950441;28;20412;-86
2023/05/19 07:22:34;;;;;;;4.60;2.50;;;15.80;72.10;;;;;;4950526;29;20168;-87
2023/05/19 07:25:10;;;;;;;4.68;2.60;;;15.70;71.90;;;;;;4934339;29;20049;-87
2023/05/19 07:27:43;;;;;;;4.20;2.75;;;15.70;71.90;;;;;;4949826;29;20035;-87
2023/05/19 07:30:11;;;;;;;4.68;2.70;;;15.60;71.70;;;;;;4950886;28;20027;-87
2023/05/19 07:32:43;;;;;;;5.45;2.80;;;15.80;71.70;;;;;;4950333;29;20031;-87
2023/05/19 07:35:23;;;;;;;3.72;2.42;;;15.70;71.50;;;;;;4950231;29;20045;-87
2023/05/19 07:38:03;;;;;;;4.28;2.50;;;15.80;71.50;;;;;;4935020;29;20503;-87
2023/05/19 07:40:30;;;;;;;4.35;2.55;;;15.80;71.30;;;;;;4950297;28;20035;-87
2023/05/19 07:43:24;;;;;;;4.47;2.53;;;15.90;71.30;;;;;;4951225;29;20031;-86
2023/05/19 07:45:54;;;;;;;5.10;2.88;;;15.80;71.20;;;;;;4951314;29;20492;-88
2023/05/19 07:48:26;;;;;;;3.42;2.35;;;15.90;71.10;;;;;;4951961;29;20043;-87
2023/05/19 07:51:12;;;;;;;5.03;2.67;;;15.80;71.00;;;;;;4935943;29;20047;-88
2023/05/19 07:53:41;;;;;;;4.88;3.00;;;16.00;71.00;;;;;;4952846;29;20027;-89
2023/05/19 07:56:20;;;;;;;4.65;2.63;;;15.90;70.90;;;;;;4951972;29;20027;-87
2023/05/19 07:58:52;;;;;;;4.75;2.58;;;16.00;70.90;;;;;;4951721;29;20030;-87
2023/05/19 08:05:58;;;;;;;;;;;;;;;;;;;;;
2023/05/19 08:12:39;;;;;;;4.18;2.50;;;16.00;71.30;;;;;;4814861;29;20626;-89
2023/05/19 08:15:41;;;;;;;3.85;2.65;;;15.90;71.30;;;;;;4796738;29;20455;-90
2023/05/19 08:29:40;;;;;;;3.67;2.40;;;16.10;71.20;;;;;;4823778;29;20085;-86
2023/05/19 08:32:32;;;;;;;4.97;2.65;;;16.00;71.10;;;;;;4934741;29;20062;-88
2023/05/19 08:35:09;;;;;;;4.50;2.45;;;16.10;71.20;;;;;;4953121;29;20031;-88
2023/05/19 08:37:38;;;;;;;5.45;2.60;;;16.30;71.30;;;;;;4939404;29;20078;-87
2023/05/19 08:40:05;;;;;;;4.97;2.70;;;16.10;71.10;;;;;;4940301;29;20054;-87
2023/05/19 08:42:34;;;;;;;4.78;2.70;;;16.10;71.00;;;;;;4956469;29;20031;-86
2023/05/19 08:45:01;;;;;;;4.28;2.40;;;16.20;71.10;;;;;;4956110;29;20031;-87
2023/05/19 08:47:28;;;;;;;5.00;2.40;;;16.20;71.00;;;;;;4956506;29;20030;-87
2023/05/19 08:50:02;;;;;;;3.75;2.15;;;16.20;71.00;;;;;;4956053;28;20035;-86
2023/05/19 08:52:44;;;;;;;4.07;2.70;;;16.20;71.00;;;;;;4956510;29;20612;-89
2023/05/19 08:55:20;;;;;;;5.07;2.72;;;16.20;71.00;;;;;;4956122;29;20047;-88
2023/05/19 08:57:48;;;;;;;4.18;2.42;;;16.30;71.00;;;;;;4955923;29;20024;-87
2023/05/19 09:00:15;;;;;;;4.50;2.50;;;16.20;71.00;;;;;;4955993;28;20388;-87
2023/05/19 09:02:41;;;;;;;5.28;2.72;;;16.30;71.00;;;;;;4939911;29;20026;-87
2023/05/19 09:05:07;;;;;;;4.03;2.50;;;16.30;70.90;;;;;;4955960;29;20381;-87
2023/05/19 09:07:36;;;;;;;4.95;2.65;;;16.30;70.90;;;;;;4955682;29;20440;-87
2023/05/19 09:10:02;;;;;;;4.18;2.63;;;16.30;70.90;;;;;;4955821;28;20027;-87
2023/05/19 09:12:28;;;;;;;3.47;2.15;;;16.30;70.90;;;;;;4955815;29;20031;-87
2023/05/19 09:14:54;;;;;;;4.60;2.20;;;16.30;70.90;;;;;;4939672;29;20031;-86
2023/05/19 09:17:20;;;;;;;4.57;2.60;;;16.40;70.90;;;;;;4955406;29;20391;-87
2023/05/19 09:19:48;;;;;;;3.42;2.40;;;16.40;70.80;;;;;;4939716;28;20027;-85
2023/05/19 09:22:15;;;;;;;4.38;2.50;;;16.40;70.80;;;;;;4959390;23;20548;-80
2023/05/19 09:24:41;;;;;;;5.05;2.58;;;16.50;70.70;;;;;;4891365;29;20123;-80
2023/05/19 09:27:07;;;;;;;4.68;2.70;;;16.50;70.60;;;;;;4912566;29;20115;-80
2023/05/19 09:29:32;;;;;;;3.90;2.25;;;16.50;70.60;;;;;;4917268;29;20056;-81
2023/05/19 09:32:00;;;;;;;4.72;2.40;;;16.50;70.50;;;;;;4929673;29;20059;-80
2023/05/19 09:34:26;;;;;;;3.80;2.30;;;16.50;70.50;;;;;;4920226;29;20127;-79
2023/05/19 09:36:52;;;;;;;3.60;2.30;;;16.60;70.50;;;;;;4921163;29;20110;-81
2023/05/19 09:39:23;;;;;;;3.83;2.40;;;16.50;70.40;;;;;;4920514;29;20024;-80
2023/05/19 09:41:54;;;;;;;5.03;2.67;;;16.60;70.40;;;;;;4920004;29;20024;-80
2023/05/19 09:44:19;;;;;;;4.22;2.10;;;16.60;70.40;;;;;;4919893;29;20039;-80
2023/05/19 09:46:51;;;;;;;4.35;2.35;;;16.50;70.30;;;;;;4919772;29;20405;-81
2023/05/19 09:49:24;;;;;;;;;;;16.50;70.50;;;;;;4920477;29;20047;-80
2023/05/19 09:51:54;;;;;;;4.85;2.55;;;16.50;70.80;;;;;;4920617;29;19917;-80
2023/05/19 09:54:21;;;;;;;3.75;2.17;;;16.40;70.90;;;;;;4920079;29;20020;-80
2023/05/19 09:57:00;;;;;;;4.50;2.40;;;16.40;71.00;;;;;;4920090;29;20024;-81
2023/05/19 09:59:27;;;;;;;3.25;2.08;;;16.40;71.10;;;;;;4920043;29;20503;-80
2023/05/19 10:01:57;;;;;;;4.35;2.17;;;16.40;71.30;;;;;;4919668;29;20032;-80
2023/05/19 10:04:25;;;;;;;3.10;2.08;;;16.30;71.30;;;;;;4919513;29;20055;-81
2023/05/19 10:06:52;;;;;;;3.85;2.10;;;16.30;71.30;;;;;;4919212;29;20028;-80
2023/05/19 10:09:23;;;;;;;4.25;2.17;;;16.30;71.40;;;;;;4919540;29;20078;-81
2023/05/19 10:11:55;;;;;;;4.05;2.05;;;16.30;71.50;;;;;;4919678;29;20024;-80
2023/05/19 10:14:25;;;;;;;4.65;2.50;;;16.20;71.50;;;;;;4919351;29;20024;-80
2023/05/19 10:16:52;;;;;;;3.17;2.10;;;16.20;71.60;;;;;;4919148;29;20113;-80
2023/05/19 10:19:23;;;;;;;4.18;2.13;;;16.20;71.70;;;;;;4919451;29;20032;-80
2023/05/19 10:21:50;;;;;;;3.28;1.95;;;16.20;71.70;;;;;;4919732;29;20031;-80
2023/05/19 10:24:16;;;;;;;4.15;2.03;;;16.20;71.70;;;;;;4919337;29;20035;-79
2023/05/19 10:26:59;;;;;;;4.65;2.22;;;16.20;71.60;;;;;;4919139;29;20416;-80
2023/05/19 10:29:28;;;;;;;3.58;2.10;;;16.20;71.80;;;;;;4919602;29;20087;-80
2023/05/19 10:31:57;;;;;;;4.80;2.38;;;16.20;71.60;;;;;;4917789;29;20024;-76
2023/05/19 10:34:50;;;;;;;3.28;1.95;;;16.30;71.70;;;;;;4916408;29;20060;-78
2023/05/19 10:37:25;;;;;;;4.05;2.10;;;16.20;71.50;;;;;;4929325;29;20390;-80
2023/05/19 10:39:52;;;;;;;4.38;2.30;;;16.20;71.50;;;;;;4924976;29;20025;-80
2023/05/19 10:42:36;;;;;;;3.80;1.98;;;16.30;71.60;;;;;;4905609;29;20024;-80
2023/05/19 10:45:12;;;;;;;3.17;2.03;;;16.30;71.50;;;;;;4901637;29;20119;-80
2023/05/19 10:47:41;;;;;;;4.32;2.10;;;16.30;71.50;;;;;;4886025;29;20405;-80
2023/05/19 10:50:07;;;;;;;4.43;2.10;;;16.30;71.50;;;;;;4886493;29;20430;-80
2023/05/19 10:52:37;;;;;;;3.70;2.20;;;16.30;71.40;;;;;;4901311;29;20108;-79
2023/05/19 10:55:03;;;;;;;3.67;2.05;;;16.30;71.40;;;;;;4902742;29;20123;-79
2023/05/19 10:57:32;;;;;;;3.13;1.95;;;16.30;71.40;;;;;;4904088;29;20097;-80
2023/05/19 11:00:08;;;;;;;3.47;2.00;;;16.40;71.40;;;;;;4904077;29;20030;-80
2023/05/19 11:02:41;;;;;;;3.78;1.90;;;16.40;71.40;;;;;;4920335;29;20076;-80
2023/05/19 11:05:08;;;;;;;3.40;1.83;;;16.40;71.40;;;;;;4903927;29;20033;-79
2023/05/19 11:07:34;;;;;;;3.70;1.90;;;16.30;71.50;;;;;;4903843;29;20493;-80
2023/05/19 11:10:05;;;;;;;3.25;1.60;;;16.30;71.50;;;;;;4902439;29;20036;-78
2023/05/19 11:12:40;;;;;;;3.45;2.05;;;16.40;71.50;;;;;;4884200;29;20091;-80
2023/05/19 11:15:08;;;;;;;3.72;1.98;;;16.30;71.30;;;;;;4901564;29;20110;-79
2023/05/19 11:17:34;;;;;;;3.10;1.80;;;16.40;71.40;;;;;;4899451;29;20408;-75
2023/05/19 11:20:00;;;;;;;3.65;1.80;;;16.40;71.90;;;;;;4898804;29;20032;-80
2023/05/19 11:22:26;;;;;;;3.03;1.90;;;16.30;71.30;;;;;;4915929;29;20405;-80
2023/05/19 11:24:55;;;;;;;3.80;2.05;;;16.40;71.40;;;;;;4901527;29;20481;-81
2023/05/19 11:27:36;;;;;;;3.72;1.80;;;16.30;71.40;;;;;;4904406;29;20032;-81
2023/05/19 11:30:06;;;;;;;3.15;1.80;;;16.30;71.40;;;;;;4903932;29;20415;-80
2023/05/19 11:32:33;;;;;;;3.83;1.92;;;16.30;71.50;;;;;;4919779;29;20409;-81
2023/05/19 11:34:59;;;;;;;3.10;1.80;;;16.30;71.60;;;;;;4904551;29;20028;-81
2023/05/19 11:37:27;;;;;;;3.85;1.80;;;16.30;71.70;;;;;;4904918;29;20449;-80
2023/05/19 11:39:53;;;;;;;3.55;1.95;;;16.30;71.70;;;;;;4904950;29;20024;-81
2023/05/19 11:42:18;;;;;;;3.08;1.80;;;16.30;71.70;;;;;;4905056;29;20504;-78
2023/05/19 11:44:45;;;;;;;3.03;1.85;;;16.30;71.60;;;;;;4904741;29;20042;-80
2023/05/19 11:47:15;;;;;;;2.78;1.67;;;16.30;71.70;;;;;;4903731;29;20031;-81
2023/05/19 11:49:47;;;;;;;3.47;1.83;;;16.20;71.70;;;;;;4903184;29;20064;-80
2023/05/19 11:52:13;;;;;;;3.50;1.80;;;16.20;71.90;;;;;;4903335;29;20159;-80
2023/05/19 11:54:40;;;;;;;3.70;2.00;;;16.20;72.00;;;;;;4901719;29;20087;-81
2023/05/19 11:57:08;;;;;;;3.38;1.90;;;16.20;72.10;;;;;;4902004;29;20512;-80
2023/05/19 11:59:36;;;;;;;3.00;1.80;;;16.10;72.20;;;;;;4903745;29;20028;-83
2023/05/19 12:02:14;;;;;;;2.88;1.55;;;16.10;72.30;;;;;;4901841;29;20080;-80
2023/05/19 12:04:40;;;;;;;3.47;1.80;;;16.10;72.90;;;;;;4893567;29;20154;-84
2023/05/19 12:07:05;;;;;;;3.80;1.80;;;16.10;72.40;;;;;;4905667;29;20024;-83
2023/05/19 12:09:31;;;;;;;3.58;1.80;;;16.10;72.40;;;;;;4899091;29;20032;-81
2023/05/19 12:11:57;;;;;;;3.00;1.80;;;16.10;72.40;;;;;;4899197;29;20031;-81
2023/05/19 12:14:24;;;;;;;3.28;1.90;;;16.10;72.40;;;;;;4900267;29;20139;-84
2023/05/19 12:16:50;;;;;;;2.33;1.50;;;16.10;72.40;;;;;;4902594;29;20067;-84
2023/05/19 12:19:15;;;;;;;2.75;1.50;;;16.10;72.40;;;;;;4899032;29;20028;-81
2023/05/19 12:21:41;;;;;;;2.65;1.67;;;16.10;72.30;;;;;;4899106;29;20520;-80
2023/05/19 12:24:07;;;;;;;3.63;1.80;;;16.10;72.30;;;;;;4899094;29;20028;-81
2023/05/19 12:26:35;;;;;;;3.58;1.80;;;16.10;72.30;;;;;;4899911;29;20076;-81
2023/05/19 12:29:04;;;;;;;3.20;1.88;;;16.10;72.30;;;;;;4900750;29;20149;-81
2023/05/19 12:31:29;;;;;;;2.85;1.80;;;16.10;72.30;;;;;;4899871;29;20028;-80
2023/05/19 12:33:55;;;;;;;3.00;1.70;;;16.10;72.40;;;;;;4898601;29;20039;-81
2023/05/19 12:36:22;;;;;;;2.97;1.70;;;16.10;72.40;;;;;;4899829;29;20032;-81
2023/05/19 12:38:53;;;;;;;2.45;1.63;;;16.10;72.40;;;;;;4900140;29;20055;-81
2023/05/19 12:41:18;;;;;;;2.28;1.50;;;16.10;72.40;;;;;;4899704;29;20055;-80
2023/05/19 12:43:44;;;;;;;2.65;1.73;;;16.10;72.40;;;;;;4899754;29;20062;-81
2023/05/19 12:46:15;;;;;;;3.05;1.83;;;16.10;72.50;;;;;;4899188;29;20083;-81
2023/05/19 12:48:43;;;;;;;3.55;1.88;;;16.10;72.50;;;;;;4899842;29;20028;-81
2023/05/19 12:51:10;;;;;;;3.05;1.70;;;16.10;72.50;;;;;;4899474;29;20028;-81
2023/05/19 12:53:36;;;;;;;4.05;2.00;;;16.10;73.10;;;;;;4899303;29;20032;-81
2023/05/19 12:56:13;;;;;;;3.17;1.67;;;16.10;72.60;;;;;;4899252;29;20513;-80
2023/05/19 12:58:42;;;;;;;3.78;1.77;;;16.10;72.60;;;;;;4916513;29;20071;-81
2023/05/19 13:01:16;;;;;;;3.15;1.90;;;16.10;72.50;;;;;;4899465;29;20024;-81
2023/05/19 13:03:41;;;;;;;3.15;1.65;;;16.10;72.60;;;;;;4892151;29;20028;-81
2023/05/19 13:06:08;;;;;;;3.45;1.95;;;16.10;72.50;;;;;;4899132;29;20079;-80
2023/05/19 13:08:34;;;;;;;2.72;1.60;;;16.10;72.40;;;;;;4896110;29;20036;-81
2023/05/19 13:10:59;;;;;;;3.13;1.60;;;16.10;72.40;;;;;;4900891;29;20020;-80
2023/05/19 13:13:25;;;;;;;2.83;1.70;;;16.10;72.30;;;;;;4901808;29;20031;-80
2023/05/19 13:15:51;;;;;;;2.80;1.50;;;16.10;72.30;;;;;;4882577;29;20516;-83
2023/05/19 13:18:17;;;;;;;2.70;1.60;;;16.10;72.30;;;;;;4882676;29;20032;-85
2023/05/19 13:20:45;;;;;;;3.03;1.70;;;16.10;72.30;;;;;;4883863;29;20063;-86
2023/05/19 13:23:11;;;;;;;3.58;1.77;;;16.10;72.30;;;;;;4901367;29;20052;-85
2023/05/19 13:25:37;;;;;;;3.03;1.60;;;16.10;72.30;;;;;;4902292;29;20036;-84
2023/05/19 13:28:04;;;;;;;3.45;1.70;;;16.10;72.20;;;;;;4883971;29;20033;-83
2023/05/19 13:30:31;;;;;;;3.10;1.67;;;16.10;72.30;;;;;;4883495;29;20063;-85
2023/05/19 13:32:57;;;;;;;2.88;1.60;;;16.10;72.30;;;;;;4883487;29;20029;-87
2023/05/19 13:35:22;;;;;;;3.47;1.75;;;16.10;72.50;;;;;;4882279;29;20088;-84
2023/05/19 13:37:48;;;;;;;2.42;1.63;;;16.10;72.50;;;;;;4882485;29;20036;-85
2023/05/19 13:40:15;;;;;;;3.00;1.70;;;16.10;72.40;;;;;;4882704;29;20405;-85
2023/05/19 13:42:41;;;;;;;2.90;1.45;;;16.10;72.50;;;;;;4882159;29;20533;-85
2023/05/19 13:45:07;;;;;;;3.08;1.70;;;16.00;72.60;;;;;;4882097;29;20164;-83
2023/05/19 13:47:33;;;;;;;2.67;1.52;;;16.00;72.60;;;;;;4882114;29;20402;-85
2023/05/19 13:49:59;;;;;;;4.13;1.80;;;16.00;72.70;;;;;;4882667;29;20102;-84
2023/05/19 13:52:25;;;;;;;3.85;1.60;;;16.00;72.80;;;;;;4882496;29;20029;-84
2023/05/19 13:54:53;;;;;;;4.05;1.70;;;16.00;72.90;;;;;;4882116;29;20040;-85
2023/05/19 13:57:19;;;;;;;3.05;1.52;;;16.00;73.00;;;;;;4881978;29;20029;-86
2023/05/19 13:59:44;;;;;;;3.83;1.63;;;16.00;72.90;;;;;;4882976;29;20031;-84
2023/05/19 14:02:10;;;;;;;2.75;1.75;;;16.00;73.00;;;;;;4882479;29;20108;-82
2023/05/19 14:04:37;;;;;;;2.75;1.55;;;16.00;73.00;;;;;;4899858;29;20028;-84
2023/05/19 14:07:03;;;;;;;2.47;1.63;;;16.00;73.00;;;;;;4900575;29;20501;-78
2023/05/19 14:09:28;;;;;;;2.78;1.48;;;15.90;72.90;;;;;;4892344;29;20069;-80
2023/05/19 14:11:54;;;;;;;3.65;1.70;;;15.90;73.00;;;;;;4887045;29;20025;-81
2023/05/19 14:14:20;;;;;;;2.05;1.40;;;16.00;73.10;;;;;;4886492;29;20028;-79
2023/05/19 14:16:45;;;;;;;2.70;1.55;;;15.90;73.10;;;;;;4902328;29;20040;-79
2023/05/19 14:19:11;;;;;;;2.45;1.60;;;15.90;73.10;;;;;;4915738;29;20032;-81
2023/05/19 14:21:36;;;;;;;3.33;1.40;;;15.90;73.20;;;;;;4904858;29;20055;-81
2023/05/19 14:24:02;;;;;;;2.75;1.45;;;15.90;73.10;;;;;;4903799;29;20051;-81